Pagina principale
METAR-TAF:

METAR-TAF

Aeroporti :

Aeroporto di Reggio Calabria

Reggio Calabria, Italia

latitudine: 38-04N, longitudine: 015-39E, altezza: 11 m

Osservazione

Il bollettino è stato emesso 20 minuti fa, alle 14:20 UTC
Vento 6 kt da ovest/sud-ovest, variando fra sud/sud-ovest e ovest
Temperature 30°C
Umidità 49%
Pressione 1011 hPa
Visibilità 10 km o più

METAR: LICR 131420Z AUTO 24006KT 210V270 9999 NCD 30/18 Q1011

Ora: 16:40 (14:40 UTC)

Previsione

Il bollettino è stato emesso 3 ore e 40 minuti fa, alle 11:00 UTC
Previsione valida dal 13 alle 12 UTC al 14 alle 12 UTC
Vento 10 kt da nord/nord-ovest
Visibilità 10 km o più
Poco nuvoloso ad un'altezza di 3000 ft
Temporaneamente
dal 14 alle 02 UTC al 14 alle 10 UTC
Visibilità: 4000 m
rovesci di pioggia

TAF: LICR 131100Z 1312/1412 34010KT 9999 FEW030 TEMPO 1402/1410 4000 SHRA

Osservazioni e previsioni meteorologiche di più di 4000 aeroporti (messaggi METAR e TAF).

Le stazioni disponibili sono rappresentate dai dischi gialli e rossi sulla carta.

Puntare il mouse per vedere il nome della stazione.

Clicca sopra per visualizzare le osservazioni e previsioni meteorologiche.

Per cambiare la mappa : fare clic sui pulsanti verdi con una croce nera per ingrandire, il pulsante verde con un trattino per diminuire, o sulla freccia verde per le mappe adiacenti.


METAR-TAF: